CFG3654 EDDL-LIMJ
Flight info
| Callsign | CFG3654 |
|---|---|
| Flight time | N/A |
| Altitude | 39000 |
| Route | DODEN1T DODEN Y852 NATOR DCT TRA DCT RIPUS DCT GERSA DCT SOSON DCT ODINA DCT SRN DCT VOG M858 RUCFO |
| Aircraft | A320/M-SDE3FGHIRWY/LB1 |
Departure
| Time | 2026-05-04 16:49 |
|---|---|
| Airport | Düsseldorf Airport (EDDL) |
Arrival
| Time | N/A |
|---|---|
| Airport | Genoa Cristoforo Colombo Airport (LIMJ) |
| Time | Latitude | Longitude | Altitude | Speed | Heading |
|---|---|---|---|---|---|
| 2026-05-04 16:12 | 51.28447 | 6.76964 | 137 ft | 0 kts | 323° |
| 2026-05-04 16:21 | 51.28447 | 6.76965 | 137 ft | 0 kts | 323° |
| 2026-05-04 16:23 | 51.28446 | 6.76965 | 137 ft | 0 kts | 323° |
| 2026-05-04 16:37 | 51.28442 | 6.76970 | 137 ft | 4 kts | 323° |
| 2026-05-04 16:37 | 51.28395 | 6.77007 | 137 ft | 4 kts | 360° |
| 2026-05-04 16:38 | 51.28373 | 6.76996 | 137 ft | 0 kts | 53° |
| 2026-05-04 16:41 | 51.28498 | 6.77259 | 137 ft | 13 kts | 53° |
| 2026-05-04 16:42 | 51.28663 | 6.77643 | 137 ft | 14 kts | 87° |
| 2026-05-04 16:43 | 51.28699 | 6.77810 | 137 ft | 6 kts | 51° |
| 2026-05-04 16:43 | 51.28803 | 6.77808 | 137 ft | 9 kts | 323° |
| 2026-05-04 16:43 | 51.28871 | 6.77729 | 137 ft | 12 kts | 324° |
| 2026-05-04 16:44 | 51.29149 | 6.78161 | 137 ft | 26 kts | 53° |
| 2026-05-04 16:45 | 51.29357 | 6.78560 | 138 ft | 11 kts | 21° |
| 2026-05-04 16:46 | 51.29437 | 6.78568 | 139 ft | 0 kts | 355° |
| 2026-05-04 16:47 | 51.29537 | 6.78523 | 144 ft | 7 kts | 302° |
| 2026-05-04 16:48 | 51.29524 | 6.78479 | 143 ft | 1 kts | 236° |
| 2026-05-04 16:48 | 51.29334 | 6.78082 | 140 ft | 92 kts | 232° |
| 2026-05-04 16:49 | 51.28087 | 6.75446 | 1071 ft | 170 kts | 232° |
| 2026-05-04 16:49 | 51.26587 | 6.72182 | 2494 ft | 198 kts | 232° |
| 2026-05-04 16:50 | 51.24781 | 6.68313 | 3322 ft | 240 kts | 232° |
| 2026-05-04 16:50 | 51.22484 | 6.64001 | 4821 ft | 261 kts | 214° |
| 2026-05-04 16:51 | 51.18943 | 6.63350 | 6557 ft | 269 kts | 173° |
| 2026-05-04 16:51 | 51.17080 | 6.63743 | 7474 ft | 270 kts | 172° |
| 2026-05-04 16:51 | 51.13651 | 6.66099 | 9196 ft | 281 kts | 139° |
| 2026-05-04 16:52 | 51.11833 | 6.71761 | 10484 ft | 313 kts | 107° |
| 2026-05-04 16:52 | 51.11355 | 6.75263 | 10847 ft | 332 kts | 103° |
| 2026-05-04 16:53 | 51.10508 | 6.82638 | 12296 ft | 344 kts | 103° |
| 2026-05-04 16:53 | 51.08961 | 6.93983 | 14462 ft | 355 kts | 106° |
| 2026-05-04 16:54 | 51.08381 | 6.97824 | 15118 ft | 359 kts | 106° |